sensor_id;sensor_type;location;lat;lon;timestamp;P1;durP1;ratioP1;P2;durP2;ratioP2
151;SDS011;68;48.792;9.164;2024-02-15T00:00:19;14.88;;;14.07;;
151;SDS011;68;48.792;9.164;2024-02-15T00:02:47;15.35;;;14.25;;
151;SDS011;68;48.792;9.164;2024-02-15T00:05:15;14.52;;;13.82;;
151;SDS011;68;48.792;9.164;2024-02-15T00:07:42;14.80;;;14.00;;
151;SDS011;68;48.792;9.164;2024-02-15T00:10:11;14.30;;;13.60;;
151;SDS011;68;48.792;9.164;2024-02-15T00:12:39;15.13;;;14.32;;
151;SDS011;68;48.792;9.164;2024-02-15T00:15:06;14.88;;;14.07;;
151;SDS011;68;48.792;9.164;2024-02-15T00:17:34;16.23;;;14.13;;
151;SDS011;68;48.792;9.164;2024-02-15T00:20:01;14.32;;;13.63;;
151;SDS011;68;48.792;9.164;2024-02-15T00:22:31;14.32;;;13.63;;
151;SDS011;68;48.792;9.164;2024-02-15T00:24:58;14.95;;;14.15;;
151;SDS011;68;48.792;9.164;2024-02-15T00:27:25;14.68;;;13.80;;
151;SDS011;68;48.792;9.164;2024-02-15T00:29:51;15.55;;;13.60;;
151;SDS011;68;48.792;9.164;2024-02-15T00:32:18;14.25;;;13.55;;
151;SDS011;68;48.792;9.164;2024-02-15T00:34:45;14.52;;;13.82;;
151;SDS011;68;48.792;9.164;2024-02-15T00:37:12;14.75;;;13.75;;
151;SDS011;68;48.792;9.164;2024-02-15T00:39:40;15.60;;;13.40;;
151;SDS011;68;48.792;9.164;2024-02-15T00:42:07;13.77;;;13.07;;
151;SDS011;68;48.792;9.164;2024-02-15T00:44:34;14.55;;;13.60;;
151;SDS011;68;48.792;9.164;2024-02-15T00:47:00;14.20;;;13.50;;
151;SDS011;68;48.792;9.164;2024-02-15T00:49:27;14.15;;;13.45;;
151;SDS011;68;48.792;9.164;2024-02-15T00:51:54;14.52;;;13.70;;
151;SDS011;68;48.792;9.164;2024-02-15T00:54:21;14.18;;;13.48;;
151;SDS011;68;48.792;9.164;2024-02-15T00:56:49;14.50;;;13.80;;
151;SDS011;68;48.792;9.164;2024-02-15T00:59:16;14.13;;;13.43;;
151;SDS011;68;48.792;9.164;2024-02-15T01:01:43;14.80;;;13.27;;
151;SDS011;68;48.792;9.164;2024-02-15T01:04:11;13.90;;;13.20;;
151;SDS011;68;48.792;9.164;2024-02-15T01:06:38;17.50;;;13.82;;
151;SDS011;68;48.792;9.164;2024-02-15T01:09:05;13.77;;;13.07;;
151;SDS011;68;48.792;9.164;2024-02-15T01:11:34;13.88;;;13.18;;
151;SDS011;68;48.792;9.164;2024-02-15T01:14:03;14.00;;;13.30;;
151;SDS011;68;48.792;9.164;2024-02-15T01:16:33;14.30;;;13.60;;
151;SDS011;68;48.792;9.164;2024-02-15T01:19:01;13.85;;;13.15;;
151;SDS011;68;48.792;9.164;2024-02-15T01:21:27;13.93;;;13.23;;
151;SDS011;68;48.792;9.164;2024-02-15T01:23:54;14.30;;;13.60;;
151;SDS011;68;48.792;9.164;2024-02-15T01:26:21;14.05;;;13.35;;
151;SDS011;68;48.792;9.164;2024-02-15T01:28:48;14.10;;;13.40;;
151;SDS011;68;48.792;9.164;2024-02-15T01:31:16;14.65;;;13.90;;
151;SDS011;68;48.792;9.164;2024-02-15T01:33:43;14.80;;;14.02;;
151;SDS011;68;48.792;9.164;2024-02-15T01:36:13;14.32;;;13.63;;
151;SDS011;68;48.792;9.164;2024-02-15T01:38:41;14.43;;;13.73;;
151;SDS011;68;48.792;9.164;2024-02-15T01:41:08;16.73;;;13.75;;
151;SDS011;68;48.792;9.164;2024-02-15T01:43:35;15.98;;;14.18;;
151;SDS011;68;48.792;9.164;2024-02-15T01:46:02;15.27;;;14.20;;
151;SDS011;68;48.792;9.164;2024-02-15T01:48:37;14.88;;;13.80;;
151;SDS011;68;48.792;9.164;2024-02-15T01:51:04;14.95;;;13.90;;
151;SDS011;68;48.792;9.164;2024-02-15T01:53:32;14.50;;;13.80;;
151;SDS011;68;48.792;9.164;2024-02-15T01:55:59;14.68;;;13.93;;
151;SDS011;68;48.792;9.164;2024-02-15T01:58:26;16.23;;;13.82;;
151;SDS011;68;48.792;9.164;2024-02-15T02:00:57;14.40;;;13.70;;
151;SDS011;68;48.792;9.164;2024-02-15T02:03:24;14.30;;;13.60;;
151;SDS011;68;48.792;9.164;2024-02-15T02:05:52;14.05;;;13.35;;
151;SDS011;68;48.792;9.164;2024-02-15T02:08:19;14.20;;;13.50;;
151;SDS011;68;48.792;9.164;2024-02-15T02:10:47;14.50;;;13.80;;
151;SDS011;68;48.792;9.164;2024-02-15T02:13:14;14.20;;;13.50;;
151;SDS011;68;48.792;9.164;2024-02-15T02:15:41;14.40;;;13.70;;
151;SDS011;68;48.792;9.164;2024-02-15T02:18:07;14.35;;;13.65;;
151;SDS011;68;48.792;9.164;2024-02-15T02:20:35;14.48;;;13.75;;
151;SDS011;68;48.792;9.164;2024-02-15T02:23:07;14.40;;;13.70;;
151;SDS011;68;48.792;9.164;2024-02-15T02:25:37;15.00;;;13.70;;
151;SDS011;68;48.792;9.164;2024-02-15T02:28:04;14.18;;;13.48;;
151;SDS011;68;48.792;9.164;2024-02-15T02:30:32;14.35;;;13.65;;
151;SDS011;68;48.792;9.164;2024-02-15T02:32:59;14.45;;;13.75;;
151;SDS011;68;48.792;9.164;2024-02-15T02:35:26;14.32;;;13.63;;
151;SDS011;68;48.792;9.164;2024-02-15T02:37:55;14.65;;;13.93;;
151;SDS011;68;48.792;9.164;2024-02-15T02:40:22;14.20;;;13.50;;
151;SDS011;68;48.792;9.164;2024-02-15T02:42:51;15.48;;;14.45;;
151;SDS011;68;48.792;9.164;2024-02-15T02:45:21;14.20;;;13.50;;
151;SDS011;68;48.792;9.164;2024-02-15T02:47:48;17.27;;;14.38;;
151;SDS011;68;48.792;9.164;2024-02-15T02:50:16;14.43;;;13.73;;
151;SDS011;68;48.792;9.164;2024-02-15T02:52:43;14.80;;;14.02;;
151;SDS011;68;48.792;9.164;2024-02-15T02:55:10;14.82;;;14.02;;
151;SDS011;68;48.792;9.164;2024-02-15T02:57:37;14.48;;;13.60;;
151;SDS011;68;48.792;9.164;2024-02-15T03:00:07;14.85;;;13.90;;
151;SDS011;68;48.792;9.164;2024-02-15T03:02:37;14.93;;;14.13;;
151;SDS011;68;48.792;9.164;2024-02-15T03:05:04;15.10;;;14.30;;
151;SDS011;68;48.792;9.164;2024-02-15T03:07:33;15.07;;;14.27;;
151;SDS011;68;48.792;9.164;2024-02-15T03:10:00;14.93;;;14.13;;
151;SDS011;68;48.792;9.164;2024-02-15T03:12:29;15.88;;;14.45;;
151;SDS011;68;48.792;9.164;2024-02-15T03:14:56;14.95;;;14.15;;
151;SDS011;68;48.792;9.164;2024-02-15T03:17:24;15.88;;;14.48;;
151;SDS011;68;48.792;9.164;2024-02-15T03:19:51;14.82;;;13.98;;
151;SDS011;68;48.792;9.164;2024-02-15T03:22:18;15.88;;;14.93;;
151;SDS011;68;48.792;9.164;2024-02-15T03:24:45;14.80;;;14.00;;
151;SDS011;68;48.792;9.164;2024-02-15T03:27:12;14.45;;;13.75;;
151;SDS011;68;48.792;9.164;2024-02-15T03:29:39;16.15;;;14.45;;
151;SDS011;68;48.792;9.164;2024-02-15T03:32:06;16.08;;;14.40;;
151;SDS011;68;48.792;9.164;2024-02-15T03:34:36;15.32;;;14.52;;
151;SDS011;68;48.792;9.164;2024-02-15T03:37:04;18.85;;;14.85;;
151;SDS011;68;48.792;9.164;2024-02-15T03:39:31;15.32;;;14.52;;
151;SDS011;68;48.792;9.164;2024-02-15T03:41:58;15.20;;;14.18;;
151;SDS011;68;48.792;9.164;2024-02-15T03:44:25;15.40;;;14.60;;
151;SDS011;68;48.792;9.164;2024-02-15T03:46:55;14.93;;;14.13;;
151;SDS011;68;48.792;9.164;2024-02-15T03:49:22;15.40;;;14.60;;
151;SDS011;68;48.792;9.164;2024-02-15T03:51:53;15.25;;;14.45;;
151;SDS011;68;48.792;9.164;2024-02-15T03:54:21;14.90;;;14.10;;
151;SDS011;68;48.792;9.164;2024-02-15T03:56:48;14.93;;;14.15;;
151;SDS011;68;48.792;9.164;2024-02-15T03:59:17;15.10;;;14.30;;
151;SDS011;68;48.792;9.164;2024-02-15T04:01:46;16.05;;;13.68;;
151;SDS011;68;48.792;9.164;2024-02-15T04:04:13;14.90;;;14.10;;
151;SDS011;68;48.792;9.164;2024-02-15T04:06:40;14.95;;;14.15;;
151;SDS011;68;48.792;9.164;2024-02-15T04:09:09;15.38;;;14.57;;
151;SDS011;68;48.792;9.164;2024-02-15T04:11:36;14.82;;;14.02;;
151;SDS011;68;48.792;9.164;2024-02-15T04:14:03;16.35;;;14.50;;
151;SDS011;68;48.792;9.164;2024-02-15T04:16:30;14.60;;;13.90;;
151;SDS011;68;48.792;9.164;2024-02-15T04:19:01;15.43;;;14.63;;
151;SDS011;68;48.792;9.164;2024-02-15T04:21:28;15.25;;;14.48;;
151;SDS011;68;48.792;9.164;2024-02-15T04:23:58;15.40;;;14.43;;
151;SDS011;68;48.792;9.164;2024-02-15T04:26:26;15.32;;;14.52;;
151;SDS011;68;48.792;9.164;2024-02-15T04:28:57;17.60;;;14.35;;
151;SDS011;68;48.792;9.164;2024-02-15T04:31:24;14.80;;;14.00;;
151;SDS011;68;48.792;9.164;2024-02-15T04:33:52;15.85;;;15.05;;
151;SDS011;68;48.792;9.164;2024-02-15T04:36:22;15.73;;;14.93;;
151;SDS011;68;48.792;9.164;2024-02-15T04:38:49;15.68;;;14.68;;
151;SDS011;68;48.792;9.164;2024-02-15T04:41:17;16.10;;;14.60;;
151;SDS011;68;48.792;9.164;2024-02-15T04:43:49;21.15;;;14.80;;
151;SDS011;68;48.792;9.164;2024-02-15T04:46:16;17.13;;;14.50;;
151;SDS011;68;48.792;9.164;2024-02-15T04:48:45;16.73;;;14.40;;
151;SDS011;68;48.792;9.164;2024-02-15T04:51:14;15.30;;;14.45;;
151;SDS011;68;48.792;9.164;2024-02-15T04:53:41;15.00;;;14.20;;
151;SDS011;68;48.792;9.164;2024-02-15T04:56:08;16.15;;;14.65;;
151;SDS011;68;48.792;9.164;2024-02-15T04:58:38;15.52;;;14.73;;
151;SDS011;68;48.792;9.164;2024-02-15T05:01:12;14.77;;;14.00;;
151;SDS011;68;48.792;9.164;2024-02-15T05:03:39;14.80;;;14.00;;
151;SDS011;68;48.792;9.164;2024-02-15T05:06:06;15.93;;;14.02;;
151;SDS011;68;48.792;9.164;2024-02-15T05:08:34;15.35;;;14.55;;
151;SDS011;68;48.792;9.164;2024-02-15T05:11:07;14.63;;;13.90;;
151;SDS011;68;48.792;9.164;2024-02-15T05:13:38;15.48;;;13.80;;
151;SDS011;68;48.792;9.164;2024-02-15T05:16:07;14.77;;;14.00;;
151;SDS011;68;48.792;9.164;2024-02-15T05:18:35;15.40;;;14.60;;
151;SDS011;68;48.792;9.164;2024-02-15T05:21:03;15.30;;;14.50;;
151;SDS011;68;48.792;9.164;2024-02-15T05:23:34;15.60;;;14.40;;
151;SDS011;68;48.792;9.164;2024-02-15T05:26:01;15.20;;;14.38;;
151;SDS011;68;48.792;9.164;2024-02-15T05:28:28;15.15;;;14.35;;
151;SDS011;68;48.792;9.164;2024-02-15T05:31:08;14.65;;;13.93;;
151;SDS011;68;48.792;9.164;2024-02-15T05:33:37;14.82;;;14.02;;
151;SDS011;68;48.792;9.164;2024-02-15T05:36:05;15.30;;;14.50;;
151;SDS011;68;48.792;9.164;2024-02-15T05:38:33;15.15;;;14.35;;
151;SDS011;68;48.792;9.164;2024-02-15T05:41:00;17.88;;;14.82;;
151;SDS011;68;48.792;9.164;2024-02-15T05:43:28;15.70;;;14.20;;
151;SDS011;68;48.792;9.164;2024-02-15T05:45:55;15.50;;;14.70;;
151;SDS011;68;48.792;9.164;2024-02-15T05:48:23;15.32;;;14.48;;
151;SDS011;68;48.792;9.164;2024-02-15T05:50:51;14.50;;;13.80;;
151;SDS011;68;48.792;9.164;2024-02-15T05:53:19;15.00;;;14.07;;
151;SDS011;68;48.792;9.164;2024-02-15T05:55:46;14.88;;;14.07;;
151;SDS011;68;48.792;9.164;2024-02-15T05:58:15;16.58;;;14.88;;
151;SDS011;68;48.792;9.164;2024-02-15T06:00:42;14.50;;;13.80;;
151;SDS011;68;48.792;9.164;2024-02-15T06:03:09;16.13;;;14.07;;
151;SDS011;68;48.792;9.164;2024-02-15T06:05:37;15.00;;;14.20;;
151;SDS011;68;48.792;9.164;2024-02-15T06:08:06;15.07;;;14.20;;
151;SDS011;68;48.792;9.164;2024-02-15T06:10:33;15.05;;;14.25;;
151;SDS011;68;48.792;9.164;2024-02-15T06:12:59;15.10;;;14.30;;
151;SDS011;68;48.792;9.164;2024-02-15T06:15:26;14.85;;;14.05;;
151;SDS011;68;48.792;9.164;2024-02-15T06:17:53;15.20;;;14.40;;
151;SDS011;68;48.792;9.164;2024-02-15T06:20:20;14.40;;;13.70;;
151;SDS011;68;48.792;9.164;2024-02-15T06:22:47;14.80;;;14.00;;
151;SDS011;68;48.792;9.164;2024-02-15T06:25:16;15.00;;;14.20;;
151;SDS011;68;48.792;9.164;2024-02-15T06:27:46;14.88;;;14.07;;
151;SDS011;68;48.792;9.164;2024-02-15T06:30:14;15.35;;;14.55;;
151;SDS011;68;48.792;9.164;2024-02-15T06:32:58;18.95;;;13.85;;
151;SDS011;68;48.792;9.164;2024-02-15T06:35:42;16.17;;;14.00;;
151;SDS011;68;48.792;9.164;2024-02-15T06:38:27;14.40;;;13.70;;
151;SDS011;68;48.792;9.164;2024-02-15T06:41:13;15.55;;;14.75;;
151;SDS011;68;48.792;9.164;2024-02-15T06:43:40;16.00;;;15.20;;
151;SDS011;68;48.792;9.164;2024-02-15T06:46:06;15.50;;;14.25;;
151;SDS011;68;48.792;9.164;2024-02-15T06:48:34;15.27;;;14.48;;
151;SDS011;68;48.792;9.164;2024-02-15T06:51:01;14.52;;;13.82;;
151;SDS011;68;48.792;9.164;2024-02-15T06:53:29;15.23;;;14.43;;
151;SDS011;68;48.792;9.164;2024-02-15T06:55:56;16.83;;;14.55;;
151;SDS011;68;48.792;9.164;2024-02-15T06:58:24;15.25;;;14.23;;
151;SDS011;68;48.792;9.164;2024-02-15T07:00:52;15.13;;;14.32;;
151;SDS011;68;48.792;9.164;2024-02-15T07:03:19;14.98;;;14.18;;
151;SDS011;68;48.792;9.164;2024-02-15T07:05:47;15.10;;;14.30;;
151;SDS011;68;48.792;9.164;2024-02-15T07:08:15;15.02;;;14.27;;
151;SDS011;68;48.792;9.164;2024-02-15T07:10:42;15.65;;;14.85;;
151;SDS011;68;48.792;9.164;2024-02-15T07:13:08;16.27;;;15.35;;
151;SDS011;68;48.792;9.164;2024-02-15T07:15:36;17.00;;;15.63;;
151;SDS011;68;48.792;9.164;2024-02-15T07:18:04;18.00;;;15.35;;
151;SDS011;68;48.792;9.164;2024-02-15T07:20:32;15.38;;;14.57;;
151;SDS011;68;48.792;9.164;2024-02-15T07:22:59;15.90;;;15.10;;
151;SDS011;68;48.792;9.164;2024-02-15T07:25:25;15.70;;;14.90;;
151;SDS011;68;48.792;9.164;2024-02-15T07:27:52;16.27;;;15.00;;
151;SDS011;68;48.792;9.164;2024-02-15T07:30:19;22.55;;;15.55;;
151;SDS011;68;48.792;9.164;2024-02-15T07:32:48;15.90;;;15.10;;
151;SDS011;68;48.792;9.164;2024-02-15T07:35:15;15.95;;;15.15;;
151;SDS011;68;48.792;9.164;2024-02-15T07:37:50;16.13;;;15.32;;
151;SDS011;68;48.792;9.164;2024-02-15T07:40:20;20.52;;;15.55;;
151;SDS011;68;48.792;9.164;2024-02-15T07:42:47;16.02;;;15.18;;
151;SDS011;68;48.792;9.164;2024-02-15T07:45:14;16.05;;;15.25;;
151;SDS011;68;48.792;9.164;2024-02-15T07:47:43;16.65;;;14.65;;
151;SDS011;68;48.792;9.164;2024-02-15T07:50:11;15.23;;;14.43;;
151;SDS011;68;48.792;9.164;2024-02-15T07:52:45;15.30;;;14.50;;
151;SDS011;68;48.792;9.164;2024-02-15T07:55:12;14.80;;;14.00;;
151;SDS011;68;48.792;9.164;2024-02-15T07:57:38;17.48;;;15.30;;
151;SDS011;68;48.792;9.164;2024-02-15T08:00:06;15.75;;;14.10;;
151;SDS011;68;48.792;9.164;2024-02-15T08:02:36;22.15;;;15.00;;
151;SDS011;68;48.792;9.164;2024-02-15T08:05:05;15.50;;;14.45;;
151;SDS011;68;48.792;9.164;2024-02-15T08:07:36;15.43;;;14.63;;
151;SDS011;68;48.792;9.164;2024-02-15T08:10:04;15.13;;;14.32;;
151;SDS011;68;48.792;9.164;2024-02-15T08:12:33;15.02;;;14.23;;
151;SDS011;68;48.792;9.164;2024-02-15T08:15:00;15.20;;;14.40;;
151;SDS011;68;48.792;9.164;2024-02-15T08:17:27;14.80;;;14.00;;
151;SDS011;68;48.792;9.164;2024-02-15T08:19:54;17.38;;;14.57;;
151;SDS011;68;48.792;9.164;2024-02-15T08:22:21;14.95;;;14.15;;
151;SDS011;68;48.792;9.164;2024-02-15T08:24:51;15.68;;;14.35;;
151;SDS011;68;48.792;9.164;2024-02-15T08:27:18;15.73;;;13.60;;
151;SDS011;68;48.792;9.164;2024-02-15T08:29:45;15.65;;;14.40;;
151;SDS011;68;48.792;9.164;2024-02-15T08:32:12;15.13;;;14.32;;
151;SDS011;68;48.792;9.164;2024-02-15T08:34:39;15.57;;;14.00;;
151;SDS011;68;48.792;9.164;2024-02-15T08:37:06;14.80;;;14.00;;
151;SDS011;68;48.792;9.164;2024-02-15T08:39:33;14.50;;;13.80;;
151;SDS011;68;48.792;9.164;2024-02-15T08:42:01;14.15;;;13.45;;
151;SDS011;68;48.792;9.164;2024-02-15T08:44:29;16.08;;;14.60;;
151;SDS011;68;48.792;9.164;2024-02-15T08:46:56;14.80;;;13.45;;
151;SDS011;68;48.792;9.164;2024-02-15T08:49:22;17.63;;;13.23;;
151;SDS011;68;48.792;9.164;2024-02-15T08:51:50;15.63;;;13.90;;
151;SDS011;68;48.792;9.164;2024-02-15T08:54:17;14.15;;;13.38;;
151;SDS011;68;48.792;9.164;2024-02-15T08:56:44;14.50;;;13.80;;
151;SDS011;68;48.792;9.164;2024-02-15T08:59:12;14.70;;;13.70;;
151;SDS011;68;48.792;9.164;2024-02-15T09:01:40;17.88;;;13.52;;
151;SDS011;68;48.792;9.164;2024-02-15T09:04:08;16.80;;;13.52;;
151;SDS011;68;48.792;9.164;2024-02-15T09:06:35;14.57;;;13.88;;
151;SDS011;68;48.792;9.164;2024-02-15T09:09:02;15.23;;;13.98;;
151;SDS011;68;48.792;9.164;2024-02-15T09:11:28;15.10;;;14.30;;
151;SDS011;68;48.792;9.164;2024-02-15T09:13:55;14.25;;;13.55;;
151;SDS011;68;48.792;9.164;2024-02-15T09:16:24;14.45;;;13.75;;
151;SDS011;68;48.792;9.164;2024-02-15T09:18:51;14.02;;;13.20;;
151;SDS011;68;48.792;9.164;2024-02-15T09:21:18;14.85;;;13.80;;
151;SDS011;68;48.792;9.164;2024-02-15T09:23:46;17.10;;;13.63;;
151;SDS011;68;48.792;9.164;2024-02-15T09:26:13;15.25;;;13.50;;
151;SDS011;68;48.792;9.164;2024-02-15T09:28:40;14.32;;;13.63;;
151;SDS011;68;48.792;9.164;2024-02-15T09:31:07;15.52;;;13.35;;
151;SDS011;68;48.792;9.164;2024-02-15T09:33:38;13.85;;;13.10;;
151;SDS011;68;48.792;9.164;2024-02-15T09:36:05;14.23;;;13.35;;
151;SDS011;68;48.792;9.164;2024-02-15T09:38:32;13.70;;;13.00;;
151;SDS011;68;48.792;9.164;2024-02-15T09:40:58;13.50;;;12.80;;
151;SDS011;68;48.792;9.164;2024-02-15T09:43:25;13.55;;;12.85;;
151;SDS011;68;48.792;9.164;2024-02-15T09:45:54;14.80;;;13.23;;
151;SDS011;68;48.792;9.164;2024-02-15T09:48:23;12.82;;;12.13;;
151;SDS011;68;48.792;9.164;2024-02-15T09:50:52;13.02;;;12.32;;
151;SDS011;68;48.792;9.164;2024-02-15T09:53:21;13.63;;;12.93;;
151;SDS011;68;48.792;9.164;2024-02-15T09:55:50;15.15;;;12.80;;
151;SDS011;68;48.792;9.164;2024-02-15T09:58:19;13.48;;;12.77;;
151;SDS011;68;48.792;9.164;2024-02-15T10:00:48;14.07;;;12.70;;
151;SDS011;68;48.792;9.164;2024-02-15T10:03:16;13.25;;;12.55;;
151;SDS011;68;48.792;9.164;2024-02-15T10:05:45;13.63;;;12.85;;
151;SDS011;68;48.792;9.164;2024-02-15T10:08:16;13.75;;;13.00;;
151;SDS011;68;48.792;9.164;2024-02-15T10:10:42;15.23;;;14.30;;
151;SDS011;68;48.792;9.164;2024-02-15T10:13:12;13.80;;;13.10;;
151;SDS011;68;48.792;9.164;2024-02-15T10:15:40;18.50;;;12.20;;
151;SDS011;68;48.792;9.164;2024-02-15T10:18:08;14.35;;;13.00;;
151;SDS011;68;48.792;9.164;2024-02-15T10:20:37;13.23;;;12.52;;
151;SDS011;68;48.792;9.164;2024-02-15T10:23:10;14.23;;;12.90;;
151;SDS011;68;48.792;9.164;2024-02-15T10:25:39;16.52;;;13.15;;
151;SDS011;68;48.792;9.164;2024-02-15T10:28:06;13.63;;;12.93;;
151;SDS011;68;48.792;9.164;2024-02-15T10:30:34;13.77;;;13.07;;
151;SDS011;68;48.792;9.164;2024-02-15T10:33:01;15.32;;;14.10;;
151;SDS011;68;48.792;9.164;2024-02-15T10:35:28;16.58;;;13.73;;
151;SDS011;68;48.792;9.164;2024-02-15T10:38:04;15.60;;;13.70;;
151;SDS011;68;48.792;9.164;2024-02-15T10:40:33;17.52;;;14.70;;
151;SDS011;68;48.792;9.164;2024-02-15T10:43:03;14.38;;;12.98;;
151;SDS011;68;48.792;9.164;2024-02-15T10:45:30;16.80;;;13.75;;
151;SDS011;68;48.792;9.164;2024-02-15T10:47:58;16.95;;;14.18;;
151;SDS011;68;48.792;9.164;2024-02-15T10:50:25;16.33;;;13.45;;
151;SDS011;68;48.792;9.164;2024-02-15T10:52:53;17.83;;;12.90;;
151;SDS011;68;48.792;9.164;2024-02-15T10:55:36;13.85;;;13.00;;
151;SDS011;68;48.792;9.164;2024-02-15T10:58:07;13.30;;;12.60;;
151;SDS011;68;48.792;9.164;2024-02-15T11:00:34;13.73;;;12.75;;
151;SDS011;68;48.792;9.164;2024-02-15T11:03:02;13.25;;;12.55;;
151;SDS011;68;48.792;9.164;2024-02-15T11:05:31;14.55;;;12.70;;
151;SDS011;68;48.792;9.164;2024-02-15T11:08:01;13.85;;;12.77;;
151;SDS011;68;48.792;9.164;2024-02-15T11:10:29;17.38;;;12.70;;
151;SDS011;68;48.792;9.164;2024-02-15T11:12:57;13.23;;;12.52;;
151;SDS011;68;48.792;9.164;2024-02-15T11:15:42;14.27;;;12.70;;
151;SDS011;68;48.792;9.164;2024-02-15T11:18:14;17.20;;;12.70;;
151;SDS011;68;48.792;9.164;2024-02-15T11:21:07;13.43;;;12.67;;
151;SDS011;68;48.792;9.164;2024-02-15T11:23:35;13.30;;;12.60;;
151;SDS011;68;48.792;9.164;2024-02-15T11:26:02;13.10;;;12.40;;
151;SDS011;68;48.792;9.164;2024-02-15T11:28:34;13.37;;;12.67;;
151;SDS011;68;48.792;9.164;2024-02-15T11:31:03;13.27;;;12.57;;
151;SDS011;68;48.792;9.164;2024-02-15T11:33:33;16.60;;;13.10;;
151;SDS011;68;48.792;9.164;2024-02-15T11:36:04;15.70;;;13.73;;
151;SDS011;68;48.792;9.164;2024-02-15T11:38:31;13.90;;;13.20;;
151;SDS011;68;48.792;9.164;2024-02-15T11:40:59;13.50;;;12.80;;
151;SDS011;68;48.792;9.164;2024-02-15T11:46:17;18.00;;;12.53;;
151;SDS011;68;48.792;9.164;2024-02-15T11:48:45;13.00;;;12.30;;
151;SDS011;68;48.792;9.164;2024-02-15T11:51:24;17.90;;;13.10;;
151;SDS011;68;48.792;9.164;2024-02-15T11:56:49;15.00;;;13.20;;
151;SDS011;68;48.792;9.164;2024-02-15T11:59:30;16.37;;;13.60;;
151;SDS011;68;48.792;9.164;2024-02-15T12:01:59;14.33;;;13.20;;
151;SDS011;68;48.792;9.164;2024-02-15T12:04:43;15.33;;;13.10;;
151;SDS011;68;48.792;9.164;2024-02-15T12:07:27;13.40;;;12.70;;
151;SDS011;68;48.792;9.164;2024-02-15T12:10:15;13.40;;;12.70;;
151;SDS011;68;48.792;9.164;2024-02-15T12:13:00;13.53;;;12.83;;
151;SDS011;68;48.792;9.164;2024-02-15T12:15:55;13.87;;;13.17;;
151;SDS011;68;48.792;9.164;2024-02-15T12:18:41;14.07;;;13.37;;
151;SDS011;68;48.792;9.164;2024-02-15T12:21:09;14.33;;;13.63;;
151;SDS011;68;48.792;9.164;2024-02-15T12:23:40;13.87;;;13.17;;
151;SDS011;68;48.792;9.164;2024-02-15T12:26:07;13.57;;;12.87;;
151;SDS011;68;48.792;9.164;2024-02-15T12:28:34;13.60;;;12.90;;
151;SDS011;68;48.792;9.164;2024-02-15T12:31:01;13.40;;;12.70;;
151;SDS011;68;48.792;9.164;2024-02-15T12:33:31;14.00;;;13.25;;
151;SDS011;68;48.792;9.164;2024-02-15T12:36:07;14.80;;;13.40;;
151;SDS011;68;48.792;9.164;2024-02-15T12:38:34;16.50;;;13.50;;
151;SDS011;68;48.792;9.164;2024-02-15T12:41:03;13.38;;;12.68;;
151;SDS011;68;48.792;9.164;2024-02-15T12:43:30;15.05;;;14.13;;
151;SDS011;68;48.792;9.164;2024-02-15T12:45:57;15.00;;;13.35;;
151;SDS011;68;48.792;9.164;2024-02-15T12:48:24;13.65;;;12.95;;
151;SDS011;68;48.792;9.164;2024-02-15T12:50:51;18.08;;;13.25;;
151;SDS011;68;48.792;9.164;2024-02-15T12:53:23;13.35;;;12.65;;
151;SDS011;68;48.792;9.164;2024-02-15T12:55:54;14.00;;;13.30;;
151;SDS011;68;48.792;9.164;2024-02-15T12:58:22;16.42;;;12.88;;
151;SDS011;68;48.792;9.164;2024-02-15T13:00:52;13.20;;;12.50;;
151;SDS011;68;48.792;9.164;2024-02-15T13:03:23;13.50;;;12.80;;
151;SDS011;68;48.792;9.164;2024-02-15T13:05:50;14.90;;;12.90;;
151;SDS011;68;48.792;9.164;2024-02-15T13:08:17;13.40;;;12.70;;
151;SDS011;68;48.792;9.164;2024-02-15T13:10:46;14.25;;;12.93;;
151;SDS011;68;48.792;9.164;2024-02-15T13:13:13;13.75;;;12.95;;
151;SDS011;68;48.792;9.164;2024-02-15T13:15:41;13.32;;;12.20;;
151;SDS011;68;48.792;9.164;2024-02-15T13:18:08;16.00;;;12.80;;
151;SDS011;68;48.792;9.164;2024-02-15T13:20:40;13.30;;;12.60;;
151;SDS011;68;48.792;9.164;2024-02-15T13:23:07;13.30;;;12.60;;
151;SDS011;68;48.792;9.164;2024-02-15T13:25:40;13.43;;;12.73;;
151;SDS011;68;48.792;9.164;2024-02-15T13:28:09;12.98;;;12.27;;
151;SDS011;68;48.792;9.164;2024-02-15T13:30:37;13.88;;;12.65;;
151;SDS011;68;48.792;9.164;2024-02-15T13:33:06;15.85;;;12.50;;
151;SDS011;68;48.792;9.164;2024-02-15T13:35:33;14.57;;;12.50;;
151;SDS011;68;48.792;9.164;2024-02-15T13:38:01;15.25;;;12.70;;
151;SDS011;68;48.792;9.164;2024-02-15T13:40:28;15.30;;;12.02;;
151;SDS011;68;48.792;9.164;2024-02-15T13:42:57;13.40;;;12.70;;
151;SDS011;68;48.792;9.164;2024-02-15T13:45:27;15.07;;;12.80;;
151;SDS011;68;48.792;9.164;2024-02-15T13:47:57;13.57;;;12.88;;
151;SDS011;68;48.792;9.164;2024-02-15T13:50:25;13.85;;;13.15;;
151;SDS011;68;48.792;9.164;2024-02-15T13:52:54;13.07;;;12.38;;
151;SDS011;68;48.792;9.164;2024-02-15T13:55:23;13.18;;;12.48;;
151;SDS011;68;48.792;9.164;2024-02-15T13:57:51;12.70;;;12.00;;
151;SDS011;68;48.792;9.164;2024-02-15T14:00:18;14.10;;;12.70;;
151;SDS011;68;48.792;9.164;2024-02-15T14:02:50;12.75;;;12.05;;
151;SDS011;68;48.792;9.164;2024-02-15T14:05:18;16.10;;;12.80;;
151;SDS011;68;48.792;9.164;2024-02-15T14:07:46;14.38;;;13.00;;
151;SDS011;68;48.792;9.164;2024-02-15T14:10:14;13.15;;;12.45;;
151;SDS011;68;48.792;9.164;2024-02-15T14:12:43;13.88;;;13.18;;
151;SDS011;68;48.792;9.164;2024-02-15T14:15:11;17.15;;;13.15;;
151;SDS011;68;48.792;9.164;2024-02-15T14:17:38;13.90;;;13.20;;
151;SDS011;68;48.792;9.164;2024-02-15T14:20:07;13.60;;;12.75;;
151;SDS011;68;48.792;9.164;2024-02-15T14:22:38;13.73;;;13.05;;
151;SDS011;68;48.792;9.164;2024-02-15T14:25:05;14.00;;;13.30;;
151;SDS011;68;48.792;9.164;2024-02-15T14:27:32;14.20;;;13.50;;
151;SDS011;68;48.792;9.164;2024-02-15T14:29:59;14.50;;;13.77;;
151;SDS011;68;48.792;9.164;2024-02-15T14:32:45;18.38;;;13.50;;
151;SDS011;68;48.792;9.164;2024-02-15T14:35:30;14.00;;;13.20;;
151;SDS011;68;48.792;9.164;2024-02-15T14:38:00;13.75;;;13.05;;
151;SDS011;68;48.792;9.164;2024-02-15T14:40:28;16.00;;;13.35;;
151;SDS011;68;48.792;9.164;2024-02-15T14:42:54;15.52;;;13.63;;
151;SDS011;68;48.792;9.164;2024-02-15T14:45:21;13.80;;;13.10;;
151;SDS011;68;48.792;9.164;2024-02-15T14:47:48;14.00;;;13.30;;
151;SDS011;68;48.792;9.164;2024-02-15T14:50:15;15.68;;;13.00;;
151;SDS011;68;48.792;9.164;2024-02-15T14:52:43;13.10;;;12.40;;
151;SDS011;68;48.792;9.164;2024-02-15T14:55:10;14.68;;;12.80;;
151;SDS011;68;48.792;9.164;2024-02-15T14:57:37;20.83;;;13.00;;
151;SDS011;68;48.792;9.164;2024-02-15T15:00:04;16.23;;;13.38;;
151;SDS011;68;48.792;9.164;2024-02-15T15:02:36;14.35;;;13.30;;
151;SDS011;68;48.792;9.164;2024-02-15T15:05:03;13.85;;;13.15;;
151;SDS011;68;48.792;9.164;2024-02-15T15:07:49;16.25;;;13.43;;
151;SDS011;68;48.792;9.164;2024-02-15T15:10:33;14.77;;;13.85;;
151;SDS011;68;48.792;9.164;2024-02-15T15:13:17;16.00;;;13.30;;
151;SDS011;68;48.792;9.164;2024-02-15T15:15:44;13.57;;;12.88;;
151;SDS011;68;48.792;9.164;2024-02-15T15:18:11;13.85;;;13.15;;
151;SDS011;68;48.792;9.164;2024-02-15T15:20:38;15.57;;;13.07;;
151;SDS011;68;48.792;9.164;2024-02-15T15:23:06;14.52;;;13.00;;
151;SDS011;68;48.792;9.164;2024-02-15T15:25:34;14.00;;;13.00;;
151;SDS011;68;48.792;9.164;2024-02-15T15:28:02;15.70;;;13.50;;
151;SDS011;68;48.792;9.164;2024-02-15T15:30:29;14.13;;;13.25;;
151;SDS011;68;48.792;9.164;2024-02-15T15:32:56;13.88;;;13.18;;
151;SDS011;68;48.792;9.164;2024-02-15T15:35:25;15.10;;;14.30;;
151;SDS011;68;48.792;9.164;2024-02-15T15:37:53;15.02;;;14.23;;
151;SDS011;68;48.792;9.164;2024-02-15T15:40:21;14.50;;;13.80;;
151;SDS011;68;48.792;9.164;2024-02-15T15:42:47;17.33;;;13.10;;
151;SDS011;68;48.792;9.164;2024-02-15T15:45:14;13.77;;;13.07;;